Wawasan Ruby — 3EVU7 — position and weather

sailwx.info

Track history (hours):
 
Tides and Currents Weather Stations Pressure Air Temp Water Temp Dewpoint Dewpoint Depression Visibility Wind Speed Wind Dir Waves Ship Positions

Wawasan Ruby

Last reported at 2015-May-23 11:06 UTC. Time now 2015-May-23 11:56 UTC.
Position N 31°57' E 120°03'.

Length 146 m; draft 6.8 m.

Type: Tanker. MMSI: 355619000.

Date/timePositionNaut miles runAvg speedWind from/ knotsBaromVisibWave heightAir tempDewpointWater temp
2015-May-23 11:06N 31°57' E 120°03'0 0.0
2015-May-23 02:18N 31°57' E 120°03'0 0.1
2015-May-22 22:03N 31°57' E 120°02'0 0.0
2015-May-22 16:30N 31°57' E 120°02'0 0.0
2015-May-22 12:22N 31°57' E 120°02'0 0.0
2015-May-22 11:22N 31°57' E 120°02'0 0.0
2015-May-22 10:28N 31°57' E 120°02'0 0.0
2015-May-22 09:28N 31°57' E 120°02'4 3.8
2015-May-22 08:33N 31°57' E 120°06'10 9.9
2015-May-22 07:33N 31°58' E 120°18'7 7.3
2015-May-22 06:34N 31°58' E 120°26'0 0.1
2015-May-22 03:06N 31°58' E 120°27'0 0.0
2015-May-22 02:30N 31°58' E 120°27'0 0.0
2015-May-22 01:24N 31°58' E 120°27'0 0.0
2015-May-21 19:19N 31°58' E 120°27'0 0.0
2015-May-21 10:31N 31°58' E 120°27'5 5.0
2015-May-21 09:33N 32°02' E 120°31'1211.8
2015-May-21 08:33N 32°01' E 120°45'1110.7
2015-May-21 07:33N 31°53' E 120°53'1110.8
2015-May-21 06:33N 31°46' E 121°03'1313.3
2015-May-21 05:34N 31°38' E 121°15'1212.2
2015-May-21 04:33N 31°29' E 121°26'8 8.4
2015-May-21 03:34N 31°24' E 121°33'1110.7
2015-May-21 02:34N 31°19' E 121°44'1010.2
2015-May-21 01:34N 31°16' E 121°56'8 7.7
2015-May-21 00:33N 31°14' E 122°05'8 7.7
2015-May-20 23:33N 31°10' E 122°12'9 8.8
2015-May-20 22:33N 31°06' E 122°21'15 1.2
2015-May-20 10:23N 31°09' E 122°39'0 0.1
2015-May-20 09:29N 31°09' E 122°39'0 0.0
2015-May-20 08:29N 31°09' E 122°39'0 0.1
2015-May-20 07:29N 31°09' E 122°39'0 0.0
2015-May-20 06:32N 31°09' E 122°39'0 0.1
2015-May-20 05:29N 31°09' E 122°39'0 0.1
2015-May-20 04:32N 31°09' E 122°39'0 0.1
2015-May-20 03:32N 31°09' E 122°39'0 0.0
2015-May-20 01:32N 31°09' E 122°39'0 0.0
2015-May-19 20:14N 31°09' E 122°39'0 0.0
2015-May-19 19:32N 31°09' E 122°39'0 0.0
2015-May-19 18:08N 31°09' E 122°39'0 0.0
2015-May-19 12:08N 31°09' E 122°39'0 0.1
2015-May-19 11:05N 31°09' E 122°39'0 0.1
2015-May-19 10:26N 31°09' E 122°39'0 0.1
2015-May-19 09:23N 31°09' E 122°39'0 0.0
2015-May-19 08:08N 31°09' E 122°39'0 0.0
2015-May-19 06:17N 31°09' E 122°39'0 0.1
2015-May-19 02:17N 31°09' E 122°39'0 0.0
2015-May-19 01:26N 31°09' E 122°39'0 0.1
2015-May-18 22:08N 31°09' E 122°39'0 0.0
2015-May-18 19:32N 31°09' E 122°39'0 0.1
2015-May-18 15:20N 31°09' E 122°39'0 0.1
2015-May-18 14:14N 31°09' E 122°39'0 0.1
2015-May-18 13:08N 31°09' E 122°39'0 0.0
2015-May-17 22:26N 31°09' E 122°39'0 0.2
2015-May-17 21:15N 31°09' E 122°39'1 0.1
2015-May-17 11:06N 31°09' E 122°38'0 0.1
2015-May-17 10:33N 31°09' E 122°38'0 0.1
2015-May-17 09:33N 31°09' E 122°39'0 0.0
2015-May-17 08:33N 31°09' E 122°39'0 0.0
2015-May-17 07:15N 31°09' E 122°39'0 0.7
2015-May-17 06:31N 31°09' E 122°39'4 4.2
2015-May-17 05:34N 31°07' E 122°43'1010.4
2015-May-17 04:33N 31°05' E 122°55'1211.6
2015-May-17 03:33N 30°59' E 123°07'1111.1
2015-May-17 02:33N 30°52' E 123°17'1412.9
2015-May-17 01:26N 30°38' E 123°20'1213.9
2015-May-17 00:33N 30°26' E 123°20'1413.9
2015-May-16 23:31N 30°11' E 123°20'1313.1
2015-May-16 22:33N 29°59' E 123°17'1212.4
2015-May-16 21:33N 29°47' E 123°14'1511.4
2015-May-16 20:17N 29°32' E 123°11'910.8
2015-May-16 19:29N 29°24' E 123°10'  
Track history (hours):
 
Tides and Currents Weather Stations Pressure Air Temp Water Temp Dewpoint Dewpoint Depression Visibility Wind Speed Wind Dir Waves Ship Positions

Wawasan Ruby

Last reported at 2015-May-23 11:06 UTC. Time now 2015-May-23 11:56 UTC.
Position N 31°57' E 120°03'.

Length 146 m; draft 6.8 m.

Type: Tanker. MMSI: 355619000.

Date/timePositionNaut miles runAvg speedWind from/ knotsBaromVisibWave heightAir tempDewpointWater temp
2015-May-23 11:06N 31°57' E 120°03'0 0.0
2015-May-23 02:18N 31°57' E 120°03'0 0.1
2015-May-22 22:03N 31°57' E 120°02'0 0.0
2015-May-22 16:30N 31°57' E 120°02'0 0.0
2015-May-22 12:22N 31°57' E 120°02'0 0.0
2015-May-22 11:22N 31°57' E 120°02'0 0.0
2015-May-22 10:28N 31°57' E 120°02'0 0.0
2015-May-22 09:28N 31°57' E 120°02'4 3.8
2015-May-22 08:33N 31°57' E 120°06'10 9.9
2015-May-22 07:33N 31°58' E 120°18'7 7.3
2015-May-22 06:34N 31°58' E 120°26'0 0.1
2015-May-22 03:06N 31°58' E 120°27'0 0.0
2015-May-22 02:30N 31°58' E 120°27'0 0.0
2015-May-22 01:24N 31°58' E 120°27'0 0.0
2015-May-21 19:19N 31°58' E 120°27'0 0.0
2015-May-21 10:31N 31°58' E 120°27'5 5.0
2015-May-21 09:33N 32°02' E 120°31'1211.8
2015-May-21 08:33N 32°01' E 120°45'1110.7
2015-May-21 07:33N 31°53' E 120°53'1110.8
2015-May-21 06:33N 31°46' E 121°03'1313.3
2015-May-21 05:34N 31°38' E 121°15'1212.2
2015-May-21 04:33N 31°29' E 121°26'8 8.4
2015-May-21 03:34N 31°24' E 121°33'1110.7
2015-May-21 02:34N 31°19' E 121°44'1010.2
2015-May-21 01:34N 31°16' E 121°56'8 7.7
2015-May-21 00:33N 31°14' E 122°05'8 7.7
2015-May-20 23:33N 31°10' E 122°12'9 8.8
2015-May-20 22:33N 31°06' E 122°21'15 1.2
2015-May-20 10:23N 31°09' E 122°39'0 0.1
2015-May-20 09:29N 31°09' E 122°39'0 0.0
2015-May-20 08:29N 31°09' E 122°39'0 0.1
2015-May-20 07:29N 31°09' E 122°39'0 0.0
2015-May-20 06:32N 31°09' E 122°39'0 0.1
2015-May-20 05:29N 31°09' E 122°39'0 0.1
2015-May-20 04:32N 31°09' E 122°39'0 0.1
2015-May-20 03:32N 31°09' E 122°39'0 0.0
2015-May-20 01:32N 31°09' E 122°39'0 0.0
2015-May-19 20:14N 31°09' E 122°39'0 0.0
2015-May-19 19:32N 31°09' E 122°39'0 0.0
2015-May-19 18:08N 31°09' E 122°39'0 0.0
2015-May-19 12:08N 31°09' E 122°39'0 0.1
2015-May-19 11:05N 31°09' E 122°39'0 0.1
2015-May-19 10:26N 31°09' E 122°39'0 0.1
2015-May-19 09:23N 31°09' E 122°39'0 0.0
2015-May-19 08:08N 31°09' E 122°39'0 0.0
2015-May-19 06:17N 31°09' E 122°39'0 0.1
2015-May-19 02:17N 31°09' E 122°39'0 0.0
2015-May-19 01:26N 31°09' E 122°39'0 0.1
2015-May-18 22:08N 31°09' E 122°39'0 0.0
2015-May-18 19:32N 31°09' E 122°39'0 0.1
2015-May-18 15:20N 31°09' E 122°39'0 0.1
2015-May-18 14:14N 31°09' E 122°39'0 0.1
2015-May-18 13:08N 31°09' E 122°39'0 0.0
2015-May-17 22:26N 31°09' E 122°39'0 0.2
2015-May-17 21:15N 31°09' E 122°39'1 0.1
2015-May-17 11:06N 31°09' E 122°38'0 0.1
2015-May-17 10:33N 31°09' E 122°38'0 0.1
2015-May-17 09:33N 31°09' E 122°39'0 0.0
2015-May-17 08:33N 31°09' E 122°39'0 0.0
2015-May-17 07:15N 31°09' E 122°39'0 0.7
2015-May-17 06:31N 31°09' E 122°39'4 4.2
2015-May-17 05:34N 31°07' E 122°43'1010.4
2015-May-17 04:33N 31°05' E 122°55'1211.6
2015-May-17 03:33N 30°59' E 123°07'1111.1
2015-May-17 02:33N 30°52' E 123°17'1412.9
2015-May-17 01:26N 30°38' E 123°20'1213.9
2015-May-17 00:33N 30°26' E 123°20'1413.9
2015-May-16 23:31N 30°11' E 123°20'1313.1
2015-May-16 22:33N 29°59' E 123°17'1212.4
2015-May-16 21:33N 29°47' E 123°14'1511.4
2015-May-16 20:17N 29°32' E 123°11'910.8
2015-May-16 19:29N 29°24' E 123°10'  

Dump ship's entire track history